sensor_id;sensor_type;location;lat;lon;timestamp;pressure;altitude;pressure_sealevel;temperature;humidity
70968;BME280;58629;48.808;8.820;2023-01-19T00:00:07;96058.47;;;-3.34;89.21
70968;BME280;58629;48.808;8.820;2023-01-19T00:02:35;96057.25;;;-3.40;89.46
70968;BME280;58629;48.808;8.820;2023-01-19T00:05:00;96059.78;;;-3.44;90.05
70968;BME280;58629;48.808;8.820;2023-01-19T00:07:29;96055.63;;;-3.48;90.46
70968;BME280;58629;48.808;8.820;2023-01-19T00:09:54;96061.50;;;-3.52;90.50
70968;BME280;58629;48.808;8.820;2023-01-19T00:12:19;96057.03;;;-3.55;90.94
70968;BME280;58629;48.808;8.820;2023-01-19T00:14:44;96058.03;;;-3.59;90.06
70968;BME280;58629;48.808;8.820;2023-01-19T00:17:10;96057.28;;;-3.60;90.22
70968;BME280;58629;48.808;8.820;2023-01-19T00:19:35;96054.34;;;-3.58;90.30
70968;BME280;58629;48.808;8.820;2023-01-19T00:22:00;96055.38;;;-3.63;90.45
70968;BME280;58629;48.808;8.820;2023-01-19T00:24:25;96057.69;;;-3.58;90.69
70968;BME280;58629;48.808;8.820;2023-01-19T00:26:51;96065.38;;;-3.61;89.87
70968;BME280;58629;48.808;8.820;2023-01-19T00:29:16;96067.97;;;-3.61;90.66
70968;BME280;58629;48.808;8.820;2023-01-19T00:31:41;96067.09;;;-3.69;90.32
70968;BME280;58629;48.808;8.820;2023-01-19T00:34:07;96071.91;;;-3.67;90.52
70968;BME280;58629;48.808;8.820;2023-01-19T00:36:32;96071.97;;;-3.64;90.71
70968;BME280;58629;48.808;8.820;2023-01-19T00:38:58;96064.50;;;-3.69;90.47
70968;BME280;58629;48.808;8.820;2023-01-19T00:41:23;96070.69;;;-3.73;89.86
70968;BME280;58629;48.808;8.820;2023-01-19T00:44:08;96066.94;;;-3.76;90.06
70968;BME280;58629;48.808;8.820;2023-01-19T00:46:33;96065.75;;;-3.78;90.80
70968;BME280;58629;48.808;8.820;2023-01-19T00:48:59;96069.59;;;-3.72;90.33
70968;BME280;58629;48.808;8.820;2023-01-19T00:51:24;96071.44;;;-3.73;90.48
70968;BME280;58629;48.808;8.820;2023-01-19T00:53:50;96070.69;;;-3.73;90.07
70968;BME280;58629;48.808;8.820;2023-01-19T00:56:15;96071.75;;;-3.74;89.59
70968;BME280;58629;48.808;8.820;2023-01-19T00:58:41;96071.34;;;-3.76;89.57
70968;BME280;58629;48.808;8.820;2023-01-19T01:01:06;96076.03;;;-3.82;89.69
70968;BME280;58629;48.808;8.820;2023-01-19T01:03:31;96079.75;;;-3.83;90.42
70968;BME280;58629;48.808;8.820;2023-01-19T01:05:57;96085.22;;;-3.84;89.45
70968;BME280;58629;48.808;8.820;2023-01-19T01:08:23;96084.50;;;-3.85;89.58
70968;BME280;58629;48.808;8.820;2023-01-19T01:10:48;96090.09;;;-3.83;89.65
70968;BME280;58629;48.808;8.820;2023-01-19T01:13:14;96082.03;;;-3.97;88.76
70968;BME280;58629;48.808;8.820;2023-01-19T01:15:39;96079.16;;;-3.92;89.72
70968;BME280;58629;48.808;8.820;2023-01-19T01:18:04;96085.09;;;-3.91;89.18
70968;BME280;58629;48.808;8.820;2023-01-19T01:20:29;96088.47;;;-4.06;88.78
70968;BME280;58629;48.808;8.820;2023-01-19T01:22:57;96085.53;;;-4.05;89.12
70968;BME280;58629;48.808;8.820;2023-01-19T01:25:24;96091.47;;;-4.04;89.78
70968;BME280;58629;48.808;8.820;2023-01-19T01:27:50;96091.97;;;-3.99;89.87
70968;BME280;58629;48.808;8.820;2023-01-19T01:30:16;96095.72;;;-3.96;89.31
70968;BME280;58629;48.808;8.820;2023-01-19T01:32:42;96096.13;;;-3.94;89.31
70968;BME280;58629;48.808;8.820;2023-01-19T01:35:08;96095.38;;;-3.95;89.50
70968;BME280;58629;48.808;8.820;2023-01-19T01:37:35;96088.63;;;-3.99;89.91
70968;BME280;58629;48.808;8.820;2023-01-19T01:40:01;96088.53;;;-4.03;89.72
70968;BME280;58629;48.808;8.820;2023-01-19T01:42:28;96086.44;;;-3.97;90.00
70968;BME280;58629;48.808;8.820;2023-01-19T01:44:56;96084.69;;;-3.93;90.41
70968;BME280;58629;48.808;8.820;2023-01-19T01:47:29;96086.66;;;-3.87;90.61
70968;BME280;58629;48.808;8.820;2023-01-19T01:50:08;96084.84;;;-3.86;90.27
70968;BME280;58629;48.808;8.820;2023-01-19T01:52:39;96093.81;;;-3.80;90.51
70968;BME280;58629;48.808;8.820;2023-01-19T01:55:05;96096.06;;;-3.79;90.33
70968;BME280;58629;48.808;8.820;2023-01-19T01:57:33;96093.91;;;-3.77;90.84
70968;BME280;58629;48.808;8.820;2023-01-19T02:00:00;96090.03;;;-4.02;89.07
70968;BME280;58629;48.808;8.820;2023-01-19T02:02:28;96089.84;;;-3.93;90.09
70968;BME280;58629;48.808;8.820;2023-01-19T02:05:31;96092.72;;;-3.98;90.02
70968;BME280;58629;48.808;8.820;2023-01-19T02:10:57;96086.75;;;-3.83;90.49
70968;BME280;58629;48.808;8.820;2023-01-19T02:13:42;96082.81;;;-3.77;90.81
70968;BME280;58629;48.808;8.820;2023-01-19T02:16:10;96078.78;;;-3.75;90.65
70968;BME280;58629;48.808;8.820;2023-01-19T02:18:37;96084.69;;;-3.74;91.04
70968;BME280;58629;48.808;8.820;2023-01-19T02:23:45;96087.63;;;-3.76;89.65
70968;BME280;58629;48.808;8.820;2023-01-19T02:26:17;96087.28;;;-3.74;90.24
70968;BME280;58629;48.808;8.820;2023-01-19T02:28:48;96081.03;;;-3.73;90.24
70968;BME280;58629;48.808;8.820;2023-01-19T02:31:15;96089.47;;;-3.76;90.18
70968;BME280;58629;48.808;8.820;2023-01-19T02:33:41;96077.22;;;-3.79;90.53
70968;BME280;58629;48.808;8.820;2023-01-19T02:36:08;96095.56;;;-3.84;89.30
70968;BME280;58629;48.808;8.820;2023-01-19T02:38:35;96085.63;;;-3.82;90.02
70968;BME280;58629;48.808;8.820;2023-01-19T02:41:04;96082.03;;;-3.78;89.67
70968;BME280;58629;48.808;8.820;2023-01-19T02:43:31;96083.56;;;-3.77;89.37
70968;BME280;58629;48.808;8.820;2023-01-19T02:45:57;96084.56;;;-3.81;89.30
70968;BME280;58629;48.808;8.820;2023-01-19T02:48:23;96082.72;;;-3.81;89.53
70968;BME280;58629;48.808;8.820;2023-01-19T02:50:53;96088.31;;;-3.79;89.30
70968;BME280;58629;48.808;8.820;2023-01-19T02:58:46;96091.56;;;-3.82;89.40
70968;BME280;58629;48.808;8.820;2023-01-19T03:01:30;96090.75;;;-3.86;89.53
70968;BME280;58629;48.808;8.820;2023-01-19T03:04:16;96095.56;;;-3.84;90.02
70968;BME280;58629;48.808;8.820;2023-01-19T03:07:02;96087.44;;;-3.86;90.15
70968;BME280;58629;48.808;8.820;2023-01-19T03:09:40;96087.03;;;-3.88;89.83
70968;BME280;58629;48.808;8.820;2023-01-19T03:14:41;96090.91;;;-3.79;89.87
70968;BME280;58629;48.808;8.820;2023-01-19T03:17:10;96093.91;;;-3.77;89.82
70968;BME280;58629;48.808;8.820;2023-01-19T03:19:39;96086.97;;;-3.73;90.00
70968;BME280;58629;48.808;8.820;2023-01-19T03:22:15;96098.81;;;-3.72;89.70
70968;BME280;58629;48.808;8.820;2023-01-19T03:24:44;96090.03;;;-3.67;90.23
70968;BME280;58629;48.808;8.820;2023-01-19T03:27:17;96094.19;;;-3.63;90.59
70968;BME280;58629;48.808;8.820;2023-01-19T03:29:48;96092.97;;;-3.69;90.83
70968;BME280;58629;48.808;8.820;2023-01-19T03:32:18;96089.63;;;-3.69;91.66
70968;BME280;58629;48.808;8.820;2023-01-19T03:34:47;96091.94;;;-3.64;91.29
70968;BME280;58629;48.808;8.820;2023-01-19T03:37:14;96096.03;;;-3.63;91.22
70968;BME280;58629;48.808;8.820;2023-01-19T03:39:41;96097.03;;;-3.68;89.95
70968;BME280;58629;48.808;8.820;2023-01-19T03:42:12;96097.44;;;-3.66;90.68
70968;BME280;58629;48.808;8.820;2023-01-19T03:44:38;96093.03;;;-3.65;90.46
70968;BME280;58629;48.808;8.820;2023-01-19T03:47:08;96098.19;;;-3.65;89.80
70968;BME280;58629;48.808;8.820;2023-01-19T03:49:35;96098.53;;;-3.67;90.04
70968;BME280;58629;48.808;8.820;2023-01-19T03:52:02;96105.22;;;-3.66;89.66
70968;BME280;58629;48.808;8.820;2023-01-19T03:54:27;96107.44;;;-3.64;89.49
70968;BME280;58629;48.808;8.820;2023-01-19T03:56:53;96106.03;;;-3.62;89.84
70968;BME280;58629;48.808;8.820;2023-01-19T03:59:18;96108.63;;;-3.62;89.74
70968;BME280;58629;48.808;8.820;2023-01-19T04:01:44;96106.78;;;-3.61;89.52
70968;BME280;58629;48.808;8.820;2023-01-19T04:04:10;96111.19;;;-3.62;89.07
70968;BME280;58629;48.808;8.820;2023-01-19T04:06:35;96116.56;;;-3.70;89.18
70968;BME280;58629;48.808;8.820;2023-01-19T04:09:00;96117.72;;;-3.68;89.02
70968;BME280;58629;48.808;8.820;2023-01-19T04:11:26;96122.25;;;-3.65;89.19
70968;BME280;58629;48.808;8.820;2023-01-19T04:13:51;96116.56;;;-3.70;89.81
70968;BME280;58629;48.808;8.820;2023-01-19T04:16:16;96118.13;;;-3.66;90.17
70968;BME280;58629;48.808;8.820;2023-01-19T04:18:44;96118.97;;;-3.62;88.93
70968;BME280;58629;48.808;8.820;2023-01-19T04:21:09;96120.78;;;-3.62;89.67
70968;BME280;58629;48.808;8.820;2023-01-19T04:23:35;96124.06;;;-3.65;90.12
70968;BME280;58629;48.808;8.820;2023-01-19T04:26:05;96124.19;;;-3.58;90.57
70968;BME280;58629;48.808;8.820;2023-01-19T04:28:31;96120.94;;;-3.55;90.19
70968;BME280;58629;48.808;8.820;2023-01-19T04:30:56;96119.19;;;-3.51;90.94
70968;BME280;58629;48.808;8.820;2023-01-19T04:33:22;96121.38;;;-3.53;90.47
70968;BME280;58629;48.808;8.820;2023-01-19T04:35:49;96121.31;;;-3.57;89.44
70968;BME280;58629;48.808;8.820;2023-01-19T04:38:15;96117.59;;;-3.56;89.58
70968;BME280;58629;48.808;8.820;2023-01-19T04:40:40;96117.25;;;-3.54;89.64
70968;BME280;58629;48.808;8.820;2023-01-19T04:43:06;96132.38;;;-3.56;89.20
70968;BME280;58629;48.808;8.820;2023-01-19T04:45:32;96119.84;;;-3.54;88.69
70968;BME280;58629;48.808;8.820;2023-01-19T04:47:57;96117.31;;;-3.51;87.87
70968;BME280;58629;48.808;8.820;2023-01-19T04:50:23;96120.53;;;-3.57;88.78
70968;BME280;58629;48.808;8.820;2023-01-19T04:52:49;96122.38;;;-3.58;88.78
70968;BME280;58629;48.808;8.820;2023-01-19T04:55:14;96120.13;;;-3.59;88.09
70968;BME280;58629;48.808;8.820;2023-01-19T04:57:40;96124.97;;;-3.58;88.26
70968;BME280;58629;48.808;8.820;2023-01-19T05:00:06;96123.88;;;-3.57;88.18
70968;BME280;58629;48.808;8.820;2023-01-19T05:02:32;96125.38;;;-3.56;89.17
70968;BME280;58629;48.808;8.820;2023-01-19T05:04:58;96127.13;;;-3.60;88.54
70968;BME280;58629;48.808;8.820;2023-01-19T05:07:23;96122.25;;;-3.65;88.62
70968;BME280;58629;48.808;8.820;2023-01-19T05:09:48;96128.41;;;-3.69;88.26
70968;BME280;58629;48.808;8.820;2023-01-19T05:12:14;96130.94;;;-3.73;88.41
70968;BME280;58629;48.808;8.820;2023-01-19T05:14:39;96133.94;;;-3.71;88.43
70968;BME280;58629;48.808;8.820;2023-01-19T05:17:05;96142.28;;;-3.77;88.77
70968;BME280;58629;48.808;8.820;2023-01-19T05:19:30;96143.50;;;-3.90;88.91
70968;BME280;58629;48.808;8.820;2023-01-19T05:21:56;96141.47;;;-3.81;89.48
70968;BME280;58629;48.808;8.820;2023-01-19T05:24:21;96142.22;;;-3.81;89.45
70968;BME280;58629;48.808;8.820;2023-01-19T05:26:46;96141.88;;;-3.79;89.30
70968;BME280;58629;48.808;8.820;2023-01-19T05:29:12;96139.00;;;-3.74;89.73
70968;BME280;58629;48.808;8.820;2023-01-19T05:31:37;96146.06;;;-3.75;89.16
70968;BME280;58629;48.808;8.820;2023-01-19T05:34:03;96146.59;;;-3.66;89.31
70968;BME280;58629;48.808;8.820;2023-01-19T05:36:28;96144.00;;;-3.66;88.35
70968;BME280;58629;48.808;8.820;2023-01-19T05:38:54;96148.84;;;-3.64;88.54
70968;BME280;58629;48.808;8.820;2023-01-19T05:41:19;96153.47;;;-3.73;88.62
70968;BME280;58629;48.808;8.820;2023-01-19T05:43:44;96141.34;;;-3.69;89.54
70968;BME280;58629;48.808;8.820;2023-01-19T05:46:10;96151.28;;;-3.71;89.34
70968;BME280;58629;48.808;8.820;2023-01-19T05:48:35;96155.53;;;-3.63;89.10
70968;BME280;58629;48.808;8.820;2023-01-19T05:51:01;96160.22;;;-3.69;88.59
70968;BME280;58629;48.808;8.820;2023-01-19T05:53:27;96156.59;;;-3.64;89.01
70968;BME280;58629;48.808;8.820;2023-01-19T05:55:52;96164.13;;;-3.59;89.43
70968;BME280;58629;48.808;8.820;2023-01-19T05:58:18;96164.13;;;-3.59;88.68
70968;BME280;58629;48.808;8.820;2023-01-19T06:00:43;96169.22;;;-3.63;89.07
70968;BME280;58629;48.808;8.820;2023-01-19T06:03:08;96171.97;;;-3.71;89.11
70968;BME280;58629;48.808;8.820;2023-01-19T06:05:34;96179.81;;;-3.68;88.89
70968;BME280;58629;48.808;8.820;2023-01-19T06:08:02;96185.16;;;-3.61;90.20
70968;BME280;58629;48.808;8.820;2023-01-19T06:10:27;96186.31;;;-3.58;89.82
70968;BME280;58629;48.808;8.820;2023-01-19T06:12:52;96184.53;;;-3.54;89.32
70968;BME280;58629;48.808;8.820;2023-01-19T06:15:18;96184.28;;;-3.49;89.83
70968;BME280;58629;48.808;8.820;2023-01-19T06:17:43;96177.47;;;-3.38;90.91
70968;BME280;58629;48.808;8.820;2023-01-19T06:20:09;96182.19;;;-3.24;91.87
70968;BME280;58629;48.808;8.820;2023-01-19T06:22:34;96179.66;;;-3.21;90.65
70968;BME280;58629;48.808;8.820;2023-01-19T06:24:59;96177.50;;;-3.19;90.10
70968;BME280;58629;48.808;8.820;2023-01-19T06:27:25;96180.66;;;-3.29;88.85
70968;BME280;58629;48.808;8.820;2023-01-19T06:29:50;96186.56;;;-3.28;90.14
70968;BME280;58629;48.808;8.820;2023-01-19T06:32:15;96181.44;;;-3.44;88.56
70968;BME280;58629;48.808;8.820;2023-01-19T06:34:41;96193.59;;;-3.29;90.22
70968;BME280;58629;48.808;8.820;2023-01-19T06:37:08;96193.72;;;-3.22;89.93
70968;BME280;58629;48.808;8.820;2023-01-19T06:39:35;96194.94;;;-3.16;90.04
70968;BME280;58629;48.808;8.820;2023-01-19T06:42:02;96185.81;;;-3.10;90.22
70968;BME280;58629;48.808;8.820;2023-01-19T06:44:27;96194.00;;;-3.08;90.50
70968;BME280;58629;48.808;8.820;2023-01-19T06:46:53;96189.63;;;-3.04;90.68
70968;BME280;58629;48.808;8.820;2023-01-19T06:49:18;96197.53;;;-2.97;90.19
70968;BME280;58629;48.808;8.820;2023-01-19T06:51:43;96196.13;;;-2.94;90.23
70968;BME280;58629;48.808;8.820;2023-01-19T06:54:08;96197.41;;;-2.85;91.24
70968;BME280;58629;48.808;8.820;2023-01-19T06:56:34;96203.75;;;-2.82;89.99
70968;BME280;58629;48.808;8.820;2023-01-19T06:58:59;96194.53;;;-2.80;88.96
70968;BME280;58629;48.808;8.820;2023-01-19T07:01:24;96196.84;;;-2.75;89.48
70968;BME280;58629;48.808;8.820;2023-01-19T07:03:51;96194.25;;;-2.75;88.51
70968;BME280;58629;48.808;8.820;2023-01-19T07:06:16;96189.38;;;-2.80;87.09
70968;BME280;58629;48.808;8.820;2023-01-19T07:08:41;96197.13;;;-2.80;87.83
70968;BME280;58629;48.808;8.820;2023-01-19T07:11:08;96200.34;;;-2.86;86.51
70968;BME280;58629;48.808;8.820;2023-01-19T07:13:35;96201.81;;;-2.85;87.97
70968;BME280;58629;48.808;8.820;2023-01-19T07:16:09;96193.72;;;-3.03;85.82
70968;BME280;58629;48.808;8.820;2023-01-19T07:18:35;96202.94;;;-2.86;86.12
70968;BME280;58629;48.808;8.820;2023-01-19T07:21:01;96197.81;;;-3.02;86.83
70968;BME280;58629;48.808;8.820;2023-01-19T07:23:26;96211.84;;;-3.22;87.49
70968;BME280;58629;48.808;8.820;2023-01-19T07:25:59;96199.84;;;-3.11;87.30
70968;BME280;58629;48.808;8.820;2023-01-19T07:28:28;96209.19;;;-3.06;87.88
70968;BME280;58629;48.808;8.820;2023-01-19T07:30:55;96212.53;;;-3.06;88.72
70968;BME280;58629;48.808;8.820;2023-01-19T07:33:22;96211.56;;;-3.17;86.79
70968;BME280;58629;48.808;8.820;2023-01-19T07:35:49;96203.47;;;-3.15;88.24
70968;BME280;58629;48.808;8.820;2023-01-19T07:38:15;96213.53;;;-3.29;89.00
70968;BME280;58629;48.808;8.820;2023-01-19T07:40:42;96207.41;;;-3.21;87.79
70968;BME280;58629;48.808;8.820;2023-01-19T07:43:07;96206.66;;;-3.22;89.29
70968;BME280;58629;48.808;8.820;2023-01-19T07:45:34;96204.28;;;-3.11;88.89
70968;BME280;58629;48.808;8.820;2023-01-19T07:47:59;96210.28;;;-3.07;88.75
70968;BME280;58629;48.808;8.820;2023-01-19T07:50:25;96209.06;;;-2.94;88.62
70968;BME280;58629;48.808;8.820;2023-01-19T07:52:51;96212.66;;;-2.99;88.12
70968;BME280;58629;48.808;8.820;2023-01-19T07:55:18;96214.72;;;-3.08;88.61
70968;BME280;58629;48.808;8.820;2023-01-19T07:57:44;96217.94;;;-2.95;88.90
70968;BME280;58629;48.808;8.820;2023-01-19T08:00:11;96221.47;;;-2.84;89.26
70968;BME280;58629;48.808;8.820;2023-01-19T08:02:38;96220.78;;;-2.81;89.08
70968;BME280;58629;48.808;8.820;2023-01-19T08:05:05;96226.97;;;-2.67;89.12
70968;BME280;58629;48.808;8.820;2023-01-19T08:07:32;96227.19;;;-2.56;88.88
70968;BME280;58629;48.808;8.820;2023-01-19T08:10:00;96228.53;;;-2.43;88.17
70968;BME280;58629;48.808;8.820;2023-01-19T08:12:25;96234.16;;;-2.37;88.95
70968;BME280;58629;48.808;8.820;2023-01-19T08:14:50;96229.13;;;-2.30;88.05
70968;BME280;58629;48.808;8.820;2023-01-19T08:17:18;96238.97;;;-2.17;88.07
70968;BME280;58629;48.808;8.820;2023-01-19T08:19:43;96234.84;;;-1.99;88.29
70968;BME280;58629;48.808;8.820;2023-01-19T08:22:09;96236.16;;;-1.86;88.44
70968;BME280;58629;48.808;8.820;2023-01-19T08:24:34;96237.19;;;-1.67;88.01
70968;BME280;58629;48.808;8.820;2023-01-19T08:27:01;96235.16;;;-1.55;87.57
70968;BME280;58629;48.808;8.820;2023-01-19T08:29:29;96242.03;;;-1.40;87.27
70968;BME280;58629;48.808;8.820;2023-01-19T08:31:56;96239.94;;;-1.31;86.24
70968;BME280;58629;48.808;8.820;2023-01-19T08:34:24;96238.34;;;-1.39;84.86
70968;BME280;58629;48.808;8.820;2023-01-19T08:36:49;96237.63;;;-1.36;85.06
70968;BME280;58629;48.808;8.820;2023-01-19T08:39:15;96236.22;;;-1.30;85.33
70968;BME280;58629;48.808;8.820;2023-01-19T08:41:42;96245.34;;;-1.43;84.90
70968;BME280;58629;48.808;8.820;2023-01-19T08:44:07;96238.19;;;-1.49;82.91
70968;BME280;58629;48.808;8.820;2023-01-19T08:46:32;96245.53;;;-1.55;84.38
70968;BME280;58629;48.808;8.820;2023-01-19T08:48:57;96246.22;;;-1.58;84.63
70968;BME280;58629;48.808;8.820;2023-01-19T08:51:23;96246.41;;;-1.44;86.13
70968;BME280;58629;48.808;8.820;2023-01-19T08:53:48;96245.81;;;-1.34;85.11
70968;BME280;58629;48.808;8.820;2023-01-19T08:56:13;96250.63;;;-1.36;85.56
70968;BME280;58629;48.808;8.820;2023-01-19T08:58:39;96256.66;;;-1.28;86.10
70968;BME280;58629;48.808;8.820;2023-01-19T09:01:06;96256.78;;;-1.21;84.80
70968;BME280;58629;48.808;8.820;2023-01-19T09:03:32;96253.41;;;-1.22;84.10
70968;BME280;58629;48.808;8.820;2023-01-19T09:05:58;96263.50;;;-1.17;84.30
70968;BME280;58629;48.808;8.820;2023-01-19T09:08:23;96264.75;;;-1.07;84.59
70968;BME280;58629;48.808;8.820;2023-01-19T09:10:49;96271.47;;;-1.03;84.56
70968;BME280;58629;48.808;8.820;2023-01-19T09:13:16;96265.81;;;-1.12;84.19
70968;BME280;58629;48.808;8.820;2023-01-19T09:15:42;96267.44;;;-1.00;83.77
70968;BME280;58629;48.808;8.820;2023-01-19T09:18:11;96261.97;;;-0.92;84.42
70968;BME280;58629;48.808;8.820;2023-01-19T09:20:41;96277.34;;;-0.79;85.93
70968;BME280;58629;48.808;8.820;2023-01-19T09:23:11;96262.66;;;-0.65;84.46
70968;BME280;58629;48.808;8.820;2023-01-19T09:25:38;96253.88;;;-0.53;84.16
70968;BME280;58629;48.808;8.820;2023-01-19T09:28:05;96254.91;;;-0.28;83.05
70968;BME280;58629;48.808;8.820;2023-01-19T09:30:32;96257.25;;;-0.16;82.50
70968;BME280;58629;48.808;8.820;2023-01-19T09:33:07;96251.72;;;-0.11;81.86
70968;BME280;58629;48.808;8.820;2023-01-19T09:35:35;96257.31;;;-0.09;81.91
70968;BME280;58629;48.808;8.820;2023-01-19T09:38:01;96265.38;;;-0.21;81.15
70968;BME280;58629;48.808;8.820;2023-01-19T09:40:27;96266.91;;;-0.17;81.68
70968;BME280;58629;48.808;8.820;2023-01-19T09:42:55;96265.16;;;-0.42;82.15
70968;BME280;58629;48.808;8.820;2023-01-19T09:45:52;96263.16;;;-0.19;82.41
70968;BME280;58629;48.808;8.820;2023-01-19T09:48:38;96268.50;;;-0.05;82.85
70968;BME280;58629;48.808;8.820;2023-01-19T09:51:11;96258.91;;;0.03;82.62
70968;BME280;58629;48.808;8.820;2023-01-19T09:56:20;96262.84;;;-0.14;82.03
70968;BME280;58629;48.808;8.820;2023-01-19T09:58:47;96266.66;;;-0.05;82.75
70968;BME280;58629;48.808;8.820;2023-01-19T10:01:41;96263.25;;;-0.12;82.17
70968;BME280;58629;48.808;8.820;2023-01-19T10:04:23;96264.69;;;-0.15;82.40
70968;BME280;58629;48.808;8.820;2023-01-19T10:06:55;96263.56;;;-0.17;82.60
70968;BME280;58629;48.808;8.820;2023-01-19T10:09:37;96266.91;;;-0.17;82.60
70968;BME280;58629;48.808;8.820;2023-01-19T10:12:11;96275.47;;;-0.16;82.94
70968;BME280;58629;48.808;8.820;2023-01-19T10:14:55;96264.16;;;-0.31;81.83
70968;BME280;58629;48.808;8.820;2023-01-19T10:17:38;96270.56;;;-0.21;84.07
70968;BME280;58629;48.808;8.820;2023-01-19T10:22:46;96262.19;;;-0.41;85.63
70968;BME280;58629;48.808;8.820;2023-01-19T10:25:22;96269.81;;;-0.58;85.62
70968;BME280;58629;48.808;8.820;2023-01-19T10:27:48;96267.03;;;-0.39;84.72
70968;BME280;58629;48.808;8.820;2023-01-19T10:30:26;96264.03;;;-0.41;85.91
70968;BME280;58629;48.808;8.820;2023-01-19T10:32:55;96259.00;;;-0.24;85.92
70968;BME280;58629;48.808;8.820;2023-01-19T10:35:23;96264.44;;;-0.03;85.77
70968;BME280;58629;48.808;8.820;2023-01-19T10:37:54;96259.03;;;0.17;84.74
70968;BME280;58629;48.808;8.820;2023-01-19T10:40:32;96259.53;;;0.33;84.63
70968;BME280;58629;48.808;8.820;2023-01-19T10:42:58;96259.66;;;0.50;83.85
70968;BME280;58629;48.808;8.820;2023-01-19T10:45:27;96257.41;;;0.45;84.19
70968;BME280;58629;48.808;8.820;2023-01-19T10:48:03;96260.03;;;0.49;84.18
70968;BME280;58629;48.808;8.820;2023-01-19T10:50:33;96261.59;;;0.60;83.94
70968;BME280;58629;48.808;8.820;2023-01-19T10:53:01;96268.72;;;0.70;83.50
70968;BME280;58629;48.808;8.820;2023-01-19T10:55:30;96258.63;;;0.65;82.13
70968;BME280;58629;48.808;8.820;2023-01-19T10:57:57;96264.19;;;0.60;82.29
70968;BME280;58629;48.808;8.820;2023-01-19T11:00:38;96259.75;;;0.61;82.72
70968;BME280;58629;48.808;8.820;2023-01-19T11:03:27;96258.22;;;0.56;83.54
70968;BME280;58629;48.808;8.820;2023-01-19T11:05:52;96253.47;;;0.69;83.37
70968;BME280;58629;48.808;8.820;2023-01-19T11:08:23;96252.38;;;0.73;82.63
70968;BME280;58629;48.808;8.820;2023-01-19T11:10:58;96239.78;;;0.86;82.99
70968;BME280;58629;48.808;8.820;2023-01-19T11:13:23;96248.75;;;0.92;82.10
70968;BME280;58629;48.808;8.820;2023-01-19T11:18:33;96248.44;;;1.01;82.08
70968;BME280;58629;48.808;8.820;2023-01-19T11:21:06;96252.13;;;0.93;81.56
70968;BME280;58629;48.808;8.820;2023-01-19T11:23:56;96243.91;;;0.91;81.45
70968;BME280;58629;48.808;8.820;2023-01-19T11:29:03;96244.50;;;0.63;82.01
70968;BME280;58629;48.808;8.820;2023-01-19T11:34:01;96237.41;;;0.60;81.78
70968;BME280;58629;48.808;8.820;2023-01-19T11:36:36;96250.50;;;0.70;82.99
70968;BME280;58629;48.808;8.820;2023-01-19T11:39:21;96247.88;;;0.70;81.62
70968;BME280;58629;48.808;8.820;2023-01-19T11:42:08;96248.69;;;0.81;82.48
70968;BME280;58629;48.808;8.820;2023-01-19T11:44:43;96244.63;;;0.87;81.51
70968;BME280;58629;48.808;8.820;2023-01-19T11:47:15;96245.44;;;0.95;83.33
70968;BME280;58629;48.808;8.820;2023-01-19T11:49:50;96247.59;;;0.82;81.59
70968;BME280;58629;48.808;8.820;2023-01-19T11:52:23;96239.31;;;0.66;82.65
70968;BME280;58629;48.808;8.820;2023-01-19T11:57:57;96235.97;;;0.69;84.26
70968;BME280;58629;48.808;8.820;2023-01-19T12:00:27;96238.56;;;0.66;82.80
70968;BME280;58629;48.808;8.820;2023-01-19T12:03:04;96241.22;;;0.73;83.80
70968;BME280;58629;48.808;8.820;2023-01-19T12:05:33;96240.47;;;0.76;83.87
70968;BME280;58629;48.808;8.820;2023-01-19T12:08:02;96233.34;;;0.69;84.07
70968;BME280;58629;48.808;8.820;2023-01-19T12:10:31;96242.25;;;0.61;83.20
70968;BME280;58629;48.808;8.820;2023-01-19T12:12:58;96242.47;;;0.42;83.56
70968;BME280;58629;48.808;8.820;2023-01-19T12:15:42;96245.38;;;0.34;85.48
70968;BME280;58629;48.808;8.820;2023-01-19T12:18:23;96255.38;;;0.25;85.43
70968;BME280;58629;48.808;8.820;2023-01-19T12:20:54;96242.72;;;0.23;86.10
70968;BME280;58629;48.808;8.820;2023-01-19T12:28:46;96240.41;;;0.15;87.84
70968;BME280;58629;48.808;8.820;2023-01-19T12:31:16;96235.22;;;0.18;87.10
70968;BME280;58629;48.808;8.820;2023-01-19T12:33:42;96237.16;;;0.25;87.48
70968;BME280;58629;48.808;8.820;2023-01-19T12:39:20;96246.28;;;0.05;87.92
70968;BME280;58629;48.808;8.820;2023-01-19T12:41:47;96243.22;;;-0.05;88.79
70968;BME280;58629;48.808;8.820;2023-01-19T12:44:15;96238.06;;;0.03;89.50
70968;BME280;58629;48.808;8.820;2023-01-19T12:46:52;96241.03;;;-0.03;88.72
70968;BME280;58629;48.808;8.820;2023-01-19T12:52:08;96254.72;;;-0.09;89.42
70968;BME280;58629;48.808;8.820;2023-01-19T12:54:41;96252.13;;;-0.06;89.54
70968;BME280;58629;48.808;8.820;2023-01-19T12:57:17;96255.06;;;-0.11;90.25
70968;BME280;58629;48.808;8.820;2023-01-19T12:59:44;96245.09;;;-0.02;89.65
70968;BME280;58629;48.808;8.820;2023-01-19T13:13:36;96251.69;;;0.29;88.28
70968;BME280;58629;48.808;8.820;2023-01-19T13:18:43;96254.63;;;0.24;89.42
70968;BME280;58629;48.808;8.820;2023-01-19T13:21:13;96253.19;;;0.30;89.87
70968;BME280;58629;48.808;8.820;2023-01-19T13:23:53;96262.47;;;0.28;87.22
70968;BME280;58629;48.808;8.820;2023-01-19T13:26:21;96253.44;;;0.15;85.47
70968;BME280;58629;48.808;8.820;2023-01-19T13:29:03;96254.97;;;0.19;86.66
70968;BME280;58629;48.808;8.820;2023-01-19T13:31:41;96258.59;;;0.11;85.37
70968;BME280;58629;48.808;8.820;2023-01-19T13:34:18;96254.09;;;0.08;84.44
70968;BME280;58629;48.808;8.820;2023-01-19T13:36:48;96262.75;;;0.16;85.71
70968;BME280;58629;48.808;8.820;2023-01-19T13:39:35;96259.75;;;0.14;84.47
70968;BME280;58629;48.808;8.820;2023-01-19T13:42:14;96257.09;;;0.10;85.99
70968;BME280;58629;48.808;8.820;2023-01-19T13:44:44;96255.97;;;0.08;86.11
70968;BME280;58629;48.808;8.820;2023-01-19T13:47:19;96258.63;;;0.15;86.51
70968;BME280;58629;48.808;8.820;2023-01-19T13:49:47;96264.53;;;0.08;85.38
70968;BME280;58629;48.808;8.820;2023-01-19T13:52:22;96266.03;;;0.09;85.88
70968;BME280;58629;48.808;8.820;2023-01-19T13:54:56;96267.50;;;0.07;85.46
70968;BME280;58629;48.808;8.820;2023-01-19T13:57:44;96273.84;;;0.09;85.83
70968;BME280;58629;48.808;8.820;2023-01-19T14:03:15;96274.50;;;0.03;86.21
70968;BME280;58629;48.808;8.820;2023-01-19T14:05:44;96274.91;;;0.05;86.95
70968;BME280;58629;48.808;8.820;2023-01-19T14:15:46;96282.94;;;-0.11;86.65